Address 0x057f3d57e3eb2d05fd5793e2a3832f143d781553

 
Txn Hash
Block
From
To
Value [Txn Fee]
0xc384c7fdb01856378986d9114ce1543715e280bf506b174a4b7b3d6ed86bfcf226737302020-11-30 0:30:3238 mins ago0x057f3d57e3eb2d05fd5793e2a3832f143d781553OUTBinance: Hot Wallet90.22140974 BNB0.00042
0x40ead1f2ad83a28d530b2dff5460c4a70e789d9c0e2df3903b42325eaa408fab26733632020-11-30 0:12:1156 mins ago0x1735a2ec488dec7c48407b070892f4627a072e0b IN 0x057f3d57e3eb2d05fd5793e2a3832f143d78155311.60059 BNB0.00042
0xb3191bb3f42c39847bc1dd94f4e64e81183b35dffced4f5c8ca8b4fe8f53ba5726731252020-11-30 0:00:171 hr 8 mins ago0x057f3d57e3eb2d05fd5793e2a3832f143d781553OUT PancakeSwap: CAKE Token0 BNB0.00042278
0x0f7bacea1fe54651c4dcc020beab63bd68f5a79411c111260a2e0ff1f108455f26725482020-11-29 23:31:261 hr 37 mins ago0x1735a2ec488dec7c48407b070892f4627a072e0b IN 0x057f3d57e3eb2d05fd5793e2a3832f143d78155318.1664 BNB0.00042
0xce4b854c33cd583ffb0b5238df5ec0c9e25d10502527f21c95748cd14d5eef0226725252020-11-29 23:30:171 hr 38 mins ago0x057f3d57e3eb2d05fd5793e2a3832f143d781553OUT PancakeSwap: CAKE Token0 BNB0.00042278
0xf5007754ead5607c34b7fc44843714c3ef6bc20fc667495a9d43c0bf7e50556126725252020-11-29 23:30:171 hr 38 mins ago0x057f3d57e3eb2d05fd5793e2a3832f143d781553OUT Binance: BUSD Stablecoin0 BNB0.00042254
0x4939d4164c28fbe6a1c486ba422480803fc34c0d8fa6741438a544cd10bca5a726719432020-11-29 23:01:112 hrs 7 mins ago0x1735a2ec488dec7c48407b070892f4627a072e0b IN 0x057f3d57e3eb2d05fd5793e2a3832f143d78155314.972804 BNB0.00042
0xd09437d9bc8ab257689765d0da244fe4c487a582856a89be25ac82611496916826719242020-11-29 23:00:142 hrs 8 mins ago0x057f3d57e3eb2d05fd5793e2a3832f143d781553OUT Binance: BUSD Stablecoin0 BNB0.00042254
0xb39844d9e8c959a634ff50829ec5ab1b9c252774f07b950a00ca06bd68584c7a26717232020-11-29 22:50:112 hrs 18 mins ago0x1735a2ec488dec7c48407b070892f4627a072e0b IN 0x057f3d57e3eb2d05fd5793e2a3832f143d7815531.347676 BNB0.00042
0xd941ae28d396bed6ccfae9124555ca6a586e3618fc23a39965edcfbba593091026715072020-11-29 22:39:232 hrs 29 mins ago0x1735a2ec488dec7c48407b070892f4627a072e0b IN 0x057f3d57e3eb2d05fd5793e2a3832f143d7815538.599527 BNB0.00042
0xf6bfde9b6b75e76dfeaf29bd29d0925263674d6e0c377079fc8c58c696e2ecdf26707322020-11-29 22:00:383 hrs 7 mins ago0x057f3d57e3eb2d05fd5793e2a3832f143d781553OUT PancakeSwap: CAKE Token0 BNB0.00042254
0xa138382c9d27e3ab6842caae4f94bddac032bb2a65b62ac2f08bc053c58fdc6826704232020-11-29 21:45:113 hrs 23 mins ago0x1735a2ec488dec7c48407b070892f4627a072e0b IN 0x057f3d57e3eb2d05fd5793e2a3832f143d78155335.537791 BNB0.00042
0x4f3dad3a3f48f9fa028983e2d72def407f8c533d75c069528b0d7d2759dc8f0d26701292020-11-29 21:30:293 hrs 38 mins ago0x057f3d57e3eb2d05fd5793e2a3832f143d781553OUT PancakeSwap: CAKE Token0 BNB0.00042254
0x63f2f1cae92a828f5b3c44f61f149332e87eb95984172b73de5b36b64072369626695282020-11-29 21:00:264 hrs 8 mins ago0x057f3d57e3eb2d05fd5793e2a3832f143d781553OUT PancakeSwap: CAKE Token0 BNB0.00042254
0x187b6083b98c4ee55c9ef94e898a4b24cc62662ee6ee309c16b4f1d2b0c6d91726689362020-11-29 20:30:504 hrs 37 mins ago0x057f3d57e3eb2d05fd5793e2a3832f143d781553OUTBinance: Hot Wallet87.89215912 BNB0.00042
0x8a89075d2fb07afb59c59b7121ca006320801b9cef619b72c4a7a30854d6450226689242020-11-29 20:30:144 hrs 38 mins ago0x057f3d57e3eb2d05fd5793e2a3832f143d781553OUT PancakeSwap: CAKE Token0 BNB0.00042278
0xe8dc92704a3c1d8f3f9cf74e4656438ab86bc4475a0c6a2709f0a7804166a2bb26686992020-11-29 20:18:594 hrs 49 mins ago0x1735a2ec488dec7c48407b070892f4627a072e0b IN 0x057f3d57e3eb2d05fd5793e2a3832f143d78155386.559696 BNB0.00042
0x0cc534ee06760aa6a058c71a44424e9315fa9490c41196e8260b2added4fcb8726686092020-11-29 20:14:294 hrs 54 mins ago0x1735a2ec488dec7c48407b070892f4627a072e0b IN 0x057f3d57e3eb2d05fd5793e2a3832f143d7815531.328074 BNB0.00042
0x2fb40ed3636bc880009aa6a43b6ca2bc92fc950ac1419840fc6e8e0bf35c830226683272020-11-29 20:00:235 hrs 8 mins ago0x370b8eaad4e5970a853d25cd26a499150fd38274 IN 0x057f3d57e3eb2d05fd5793e2a3832f143d7815530.0065 BNB0.00042
0xf0a3b277280a1e36e8be4d9403b0f161b98244cfa5361d8fbee8cfa9765b34f326677262020-11-29 19:30:205 hrs 38 mins ago0x057f3d57e3eb2d05fd5793e2a3832f143d781553OUT PancakeSwap: CAKE Token0 BNB0.00042278
0xf739783161486ec8fed5af42aa2b7330a59e2822ab69cf8c6100a6a4ae30b8be26671282020-11-29 19:00:266 hrs 8 mins ago0x057f3d57e3eb2d05fd5793e2a3832f143d781553OUT Binance: BUSD Stablecoin0 BNB0.00042254
0x50ccbde5eaddccf70db41ad66435a3e30bfdf95a75f57346a145d3dffca3a5db26671262020-11-29 19:00:206 hrs 8 mins ago0x057f3d57e3eb2d05fd5793e2a3832f143d781553OUT PancakeSwap: CAKE Token0 BNB0.00042278
0x47788a835646f6f138d22849b349cc62d393315a5a064d86eb03324d28965cc126665362020-11-29 18:30:506 hrs 37 mins ago0x057f3d57e3eb2d05fd5793e2a3832f143d781553OUTBinance: Hot Wallet48.69913314 BNB0.00042
0xe0cd789d4bf404140c4ab564f6dcac92e66d211842195df2084af7d8ee658b8426660872020-11-29 18:08:097 hrs ago0x1735a2ec488dec7c48407b070892f4627a072e0b IN 0x057f3d57e3eb2d05fd5793e2a3832f143d78155313.248576 BNB0.00042
0xff98dabb3ae59f8055a39a2ef054b6b35862b2a3c9ef3558a4e9b28061d82b5226659312020-11-29 18:00:217 hrs 8 mins ago0x057f3d57e3eb2d05fd5793e2a3832f143d781553OUT Binance: BUSD Stablecoin0 BNB0.00042254
[ Download CSV Export 
Parent Txn Hash Block From To Value
Loading

Contract Name:
0 BNB

Compiler Version
0

Optimization Enabled:
0 BNB

Other Settings:
-NA-
Block Transaction Gas Used Reward
Age Block Fee Address BC Fee Address Voting Power Jailed Incoming
Block Uncle Number Difficulty Gas Used Reward
Loading
Loading
Make sure to use the "Vote Down" button for any spammy posts, and the "Vote Up" for interesting conversations.